TimeCDT,TemperatureF,Dew PointF,Humidity,Sea Level PressureIn,VisibilityMPH,Wind Direction,Wind SpeedMPH,Gust SpeedMPH,PrecipitationIn,Events,Conditions,WindDirDegrees,DateUTC
12:53 AM,36.0,32.0,86,30.31,10.0,NW,8.1,-,N/A,,Overcast,310,2013-03-20 05:53:00
1:53 AM,36.0,28.0,73,30.33,10.0,NNW,8.1,-,N/A,,Mostly Cloudy,340,2013-03-20 06:53:00
2:53 AM,33.1,23.0,66,30.36,10.0,North,13.8,-,N/A,,Overcast,10,2013-03-20 07:53:00
3:53 AM,30.9,21.9,69,30.37,10.0,North,10.4,-,N/A,,Clear,350,2013-03-20 08:53:00
4:53 AM,28.9,16.0,58,30.39,10.0,NNW,10.4,-,N/A,,Partly Cloudy,340,2013-03-20 09:53:00
5:53 AM,28.0,10.9,49,30.41,10.0,North,12.7,24.2,N/A,,Overcast,360,2013-03-20 10:53:00
6:53 AM,26.1,10.9,53,30.44,10.0,North,17.3,25.3,N/A,,Mostly Cloudy,350,2013-03-20 11:53:00
7:53 AM,24.1,10.9,57,30.45,10.0,NNW,11.5,-,N/A,,Partly Cloudy,330,2013-03-20 12:53:00
8:53 AM,26.1,12.0,55,30.46,10.0,NNW,13.8,-,N/A,,Clear,330,2013-03-20 13:53:00
9:53 AM,28.0,14.0,56,30.45,10.0,NNW,12.7,-,N/A,,Clear,330,2013-03-20 14:53:00
10:53 AM,30.0,12.0,47,30.45,10.0,North,13.8,-,N/A,,Clear,350,2013-03-20 15:53:00
11:53 AM,34.0,12.9,42,30.44,10.0,North,13.8,20.7,N/A,,Clear,350,2013-03-20 16:53:00
12:53 PM,37.9,12.0,35,30.41,10.0,NNW,13.8,21.9,N/A,,Clear,340,2013-03-20 17:53:00
1:53 PM,39.0,10.0,30,30.37,10.0,North,15.0,21.9,N/A,,Clear,350,2013-03-20 18:53:00
2:53 PM,41.0,10.9,29,30.32,10.0,NW,12.7,18.4,N/A,,Clear,320,2013-03-20 19:53:00
3:53 PM,43.0,10.9,27,30.26,10.0,North,13.8,23.0,N/A,,Clear,360,2013-03-20 20:53:00
4:53 PM,43.0,9.0,25,30.25,10.0,North,11.5,19.6,N/A,,Clear,360,2013-03-20 21:53:00
5:53 PM,43.0,9.0,25,30.22,10.0,North,9.2,-,N/A,,Clear,350,2013-03-20 22:53:00
6:53 PM,39.9,10.0,29,30.20,10.0,North,6.9,-,N/A,,Clear,360,2013-03-20 23:53:00
7:53 PM,36.0,10.0,34,30.19,10.0,NNE,8.1,-,N/A,,Clear,30,2013-03-21 00:53:00
8:53 PM,35.1,12.0,39,30.19,10.0,ESE,3.5,-,N/A,,Clear,120,2013-03-21 01:53:00
9:53 PM,30.9,17.1,57,30.18,10.0,ENE,3.5,-,N/A,,Clear,70,2013-03-21 02:53:00
10:53 PM,30.0,15.1,54,30.17,10.0,East,3.5,-,N/A,,Clear,80,2013-03-21 03:53:00
11:53 PM,30.0,14.0,51,30.15,10.0,Calm,Calm,-,N/A,,Clear,0,2013-03-21 04:53:00